Time;durP1;ratioP1;P1;durP2;ratioP2;P2;SDS_P1;SDS_P2;PMS_P1;PMS_P2;Temp;Humidity;BMP_temperature;BMP_pressure;BME280_temperature;BME280_humidity;BME280_pressure;Samples;Min_cycle;Max_cycle;Signal;HPM_P1;HPM_P2
2022/11/04 00:01:41;;;;;;;1.85;0.82;;;;;;;9.62;100.00;100136.66;5096124;28;20480;-35
2022/11/04 00:04:08;;;;;;;2.25;0.88;;;;;;;9.65;100.00;100149.66;5096465;28;20028;-34
2022/11/04 00:06:33;;;;;;;;;;;;;;;9.77;100.00;100142.31;5097000;28;20024;-35
2022/11/04 00:08:58;;;;;;;2.65;0.73;;;;;;;9.62;100.00;100144.75;5096552;28;20007;-35
2022/11/04 00:14:10;;;;;;;2.55;0.60;;;;;;;9.63;100.00;100156.38;5097000;28;20085;-34
2022/11/04 00:19:20;;;;;;;1.58;0.50;;;;;;;9.54;100.00;100159.44;5096608;28;20093;-35
2022/11/04 00:30:09;;;;;;;4.80;1.30;;;;;;;9.48;100.00;100173.91;5096496;28;20043;-34
2022/11/04 00:35:20;;;;;;;1.20;0.73;;;;;;;9.34;100.00;100179.81;5095502;28;20043;-35
2022/11/04 00:37:45;;;;;;;2.75;0.90;;;;;;;9.39;100.00;100183.44;5095806;28;20024;-35
2022/11/04 00:40:13;;;;;;;1.27;1.10;;;;;;;9.36;100.00;100192.00;5095906;28;20039;-35
2022/11/04 00:42:39;;;;;;;2.17;1.70;;;;;;;9.33;100.00;100195.19;5094448;28;20118;-35
2022/11/04 00:45:05;;;;;;;;;;;;;;;9.43;100.00;100187.28;5096039;28;20529;-35
2022/11/04 00:47:30;;;;;;;4.55;2.90;;;;;;;9.39;100.00;100185.31;5095562;28;19973;-35
2022/11/04 00:49:55;;;;;;;6.40;3.87;;;;;;;9.35;100.00;100179.56;5095503;28;20024;-35
2022/11/04 00:52:21;;;;;;;5.73;5.00;;;;;;;9.42;100.00;100193.75;5095719;28;20349;-34
2022/11/04 00:54:46;;;;;;;6.13;5.13;;;;;;;9.42;100.00;100191.06;5095938;28;20024;-35
2022/11/04 00:57:12;;;;;;;5.75;5.25;;;;;;;9.36;100.00;100173.09;5096069;28;20035;-35
2022/11/04 00:59:38;;;;;;;7.80;5.72;;;;;;;9.47;100.00;100193.84;5095000;28;20031;-34
2022/11/04 01:02:04;;;;;;;;;;;;;;;9.55;100.00;100201.56;5095776;28;20028;-35
2022/11/04 01:04:29;;;;;;;6.55;5.85;;;;;;;9.48;100.00;100198.19;5095218;28;19915;-35
2022/11/04 01:06:55;;;;;;;6.60;5.80;;;;;;;9.48;100.00;100195.50;5095717;28;20034;-34
2022/11/04 01:09:20;;;;;;;8.37;6.97;;;;;;;9.46;100.00;100188.69;5094439;28;20024;-35
2022/11/04 01:11:45;;;;;;;10.50;7.60;;;;;;;9.50;100.00;100201.47;5095031;28;20028;-35
2022/11/04 01:14:11;;;;;;;9.40;8.60;;;;;;;9.51;100.00;100200.38;5095679;28;20472;-35
2022/11/04 01:16:36;;;;;;;9.60;8.70;;;;;;;9.45;100.00;100195.97;5095513;28;20028;-35
2022/11/04 01:19:02;;;;;;;9.30;8.20;;;;;;;9.51;100.00;100197.69;5094983;28;20035;-35
2022/11/04 01:21:28;;;;;;;10.45;8.23;;;;;;;9.45;100.00;100193.25;5095558;28;20376;-34
2022/11/04 01:23:53;;;;;;;9.30;8.23;;;;;;;9.50;100.00;100206.84;5094093;28;20032;-35
2022/11/04 01:26:21;;;;;;;8.27;7.00;;;;;;;9.46;100.00;100208.38;5095000;28;20628;-35
2022/11/04 01:28:48;;;;;;;9.63;7.72;;;;;;;9.50;100.00;100225.75;5095159;28;20452;-35
2022/11/04 01:31:16;;;;;;;8.90;7.43;;;;;;;9.51;100.00;100227.38;5094891;28;20028;-35
2022/11/04 01:33:42;;;;;;;9.13;7.40;;;;;;;9.49;100.00;100224.13;5094372;28;20035;-35
2022/11/04 01:36:09;;;;;;;8.30;7.50;;;;;;;9.53;100.00;100227.16;5094331;28;20032;-34
2022/11/04 01:38:34;;;;;;;9.55;7.43;;;;;;;9.40;100.00;100211.22;5093320;28;20024;-35
2022/11/04 01:41:00;;;;;;;10.63;7.65;;;;;;;9.52;100.00;100222.84;5094552;28;20044;-35
2022/11/04 01:43:47;;;;;;;10.35;8.02;;;;;;;9.53;100.00;100208.28;5094504;28;20032;-34
2022/11/04 01:46:32;;;;;;;10.65;7.55;;;;;;;9.52;100.00;100209.34;5094331;28;20093;-35
2022/11/04 01:49:08;;;;;;;11.82;7.88;;;;;;;9.43;100.00;100200.78;5094646;28;20036;-35
2022/11/04 01:51:36;;;;;;;12.13;7.55;;;;;;;9.44;100.00;100213.22;5093227;28;20166;-35
2022/11/04 01:54:05;;;;;;;10.25;7.30;;;;;;;9.40;100.00;100217.44;5094608;28;20028;-35
2022/11/04 01:56:31;;;;;;;8.05;6.80;;;;;;;9.38;100.00;100213.34;5093922;28;20024;-35
2022/11/04 01:59:02;;;;;;;7.72;6.90;;;;;;;9.21;100.00;100197.88;5094689;28;20020;-35
2022/11/04 02:01:27;;;;;;;9.70;7.07;;;;;;;9.29;100.00;100227.22;5094650;28;20032;-34
2022/11/04 02:04:24;;;;;;;10.57;7.53;;;;;;;9.29;100.00;100226.38;5093903;28;20024;-34
2022/11/04 02:06:49;;;;;;;13.73;7.38;;;;;;;9.25;100.00;100222.53;5094134;28;20467;-35
2022/11/04 02:09:17;;;;;;;8.80;6.78;;;;;;;9.17;100.00;100218.31;5094416;28;20138;-35
2022/11/04 02:14:26;;;;;;;9.05;6.00;;;;;;;9.15;100.00;100233.91;5092854;28;20081;-34
2022/11/04 02:17:00;;;;;;;7.20;6.22;;;;;;;9.10;100.00;100241.06;5093720;28;20044;-35
2022/11/04 02:19:28;;;;;;;8.38;5.53;;;;;;;8.99;100.00;100226.56;5093931;28;20040;-35
2022/11/04 02:22:11;;;;;;;8.88;5.35;;;;;;;9.08;100.00;100240.47;5093666;28;20183;-35
2022/11/04 02:25:13;;;;;;;9.88;5.03;;;;;;;9.01;100.00;100238.72;5093420;28;20460;-35
2022/11/04 02:28:07;;;;;;;8.30;4.57;;;;;;;8.98;100.00;100241.91;5092563;28;20153;-35
2022/11/04 02:30:55;;;;;;;9.73;4.28;;;;;;;8.96;100.00;100243.19;5070951;28;20390;-35
2022/11/04 02:33:46;;;;;;;8.32;4.20;;;;;;;8.85;100.00;100235.94;5070817;28;20071;-34
2022/11/04 02:36:26;;;;;;;5.97;3.92;;;;;;;8.90;100.00;100247.66;5068377;28;20044;-34
2022/11/04 02:38:59;;;;;;;7.57;3.80;;;;;;;8.90;100.00;100244.94;5071144;28;20040;-35
2022/11/04 02:41:36;;;;;;;11.13;3.60;;;;;;;8.87;100.00;100250.81;5070868;28;20052;-35
2022/11/04 02:44:26;;;;;;;5.97;2.95;;;;;;;8.83;100.00;100259.59;5054737;28;20431;-34
2022/11/04 02:46:53;;;;;;;5.45;3.03;;;;;;;8.81;100.00;100251.75;5071298;28;20110;-34
2022/11/04 02:49:28;;;;;;;5.35;2.95;;;;;;;8.70;100.00;100241.78;5071099;28;20040;-34
2022/11/04 02:52:07;;;;;;;10.40;3.30;;;;;;;8.72;100.00;100250.44;5070813;28;20467;-34
2022/11/04 02:54:41;;;;;;;5.40;3.03;;;;;;;8.75;100.00;100252.69;5071112;28;20036;-34
2022/11/04 02:57:11;;;;;;;5.97;3.13;;;;;;;8.71;100.00;100256.91;5071123;28;20078;-35
2022/11/04 02:59:52;;;;;;;5.47;3.15;;;;;;;8.66;100.00;100254.06;5070602;28;20060;-35
2022/11/04 03:02:25;;;;;;;5.97;3.13;;;;;;;8.70;100.00;100261.47;5070801;28;20036;-35
2022/11/04 03:04:51;;;;;;;6.13;3.17;;;;;;;8.69;100.00;100264.41;5071106;28;20028;-34
2022/11/04 03:07:24;;;;;;;5.18;3.30;;;;;;;8.63;100.00;100254.53;5078832;28;20124;-34
2022/11/04 03:09:55;;;;;;;5.95;3.00;;;;;;;8.63;100.00;100266.13;5093127;28;20025;-35
2022/11/04 03:12:26;;;;;;;8.18;3.15;;;;;;;8.64;100.00;100262.41;5093343;28;20048;-35
2022/11/04 03:14:58;;;;;;;6.13;3.30;;;;;;;8.64;100.00;100266.97;5093247;28;20020;-34
2022/11/04 03:17:42;;;;;;;5.07;2.95;;;;;;;8.68;100.00;100270.81;5092822;28;20063;-35
2022/11/04 03:20:20;;;;;;;5.35;2.83;;;;;;;8.62;100.00;100266.38;5093692;28;20063;-35
2022/11/04 03:22:45;;;;;;;5.85;2.83;;;;;;;8.57;100.00;100277.84;5093013;28;20039;-35
2022/11/04 03:25:11;;;;;;;7.40;2.90;;;;;;;8.59;100.00;100283.84;5093478;28;20025;-35
2022/11/04 03:27:52;;;;;;;6.72;2.28;;;;;;;8.57;100.00;100283.22;5092603;28;20036;-34
2022/11/04 03:30:20;;;;;;;6.60;2.53;;;;;;;8.49;100.00;100280.88;5093093;28;20418;-35
2022/11/04 03:33:19;;;;;;;4.55;2.40;;;;;;;8.56;100.00;100283.47;5093810;28;20115;-35
2022/11/04 03:35:45;;;;;;;3.90;2.00;;;;;;;8.46;100.00;100284.03;5097205;28;20028;-34
2022/11/04 03:38:10;;;;;;;5.78;2.38;;;;;;;8.47;100.00;100291.88;5096821;28;20024;-35
2022/11/04 03:40:36;;;;;;;6.23;2.20;;;;;;;8.44;100.00;100288.81;5096965;28;20107;-34
2022/11/04 03:43:10;;;;;;;4.90;2.07;;;;;;;8.45;100.00;100296.69;5097683;28;20028;-35
2022/11/04 03:45:36;;;;;;;6.32;1.60;;;;;;;8.36;100.00;100283.75;5096833;28;20036;-34
2022/11/04 03:48:01;;;;;;;7.47;2.35;;;;;;;8.38;100.00;100290.56;5096678;28;20051;-34
2022/11/04 03:50:30;;;;;;;9.47;2.50;;;;;;;8.34;100.00;100283.97;5096772;28;20085;-34
2022/11/04 03:52:57;;;;;;;6.95;2.28;;;;;;;8.36;100.00;100295.38;5096951;28;20304;-34
2022/11/04 03:55:33;;;;;;;7.90;2.17;;;;;;;8.34;100.00;100286.66;5096342;28;20468;-34
2022/11/04 03:58:33;;;;;;;5.72;1.77;;;;;;;8.37;100.00;100299.72;5097293;28;20032;-35
2022/11/04 04:01:40;;;;;;;8.00;2.17;;;;;;;8.31;100.00;100295.22;5073906;28;20127;-34
2022/11/04 04:04:38;;;;;;;6.20;1.90;;;;;;;8.28;100.00;100298.34;5014734;28;20048;-34
2022/11/04 04:07:06;;;;;;;;;;;;;;;8.29;100.00;100289.22;5014902;28;20037;-35
2022/11/04 04:09:43;;;;;;;;;;;;;;;8.25;100.00;100296.13;5014957;28;19919;-35
2022/11/04 04:12:36;;;;;;;5.40;2.08;;;;;;;8.17;100.00;100291.06;5014154;28;19948;-35
2022/11/04 04:15:17;;;;;;;5.20;2.00;;;;;;;8.15;100.00;100303.91;5014509;28;20042;-34
2022/11/04 04:17:51;;;;;;;5.82;1.70;;;;;;;8.07;100.00;100302.38;5014190;28;20108;-35
2022/11/04 04:20:24;;;;;;;6.03;2.00;;;;;;;8.10;100.00;100303.78;5013764;28;20481;-35
2022/11/04 04:22:57;;;;;;;4.93;1.95;;;;;;;8.08;100.00;100308.59;5013780;28;20084;-35
2022/11/04 04:28:13;;;;;;;6.43;1.92;;;;;;;7.95;100.00;100312.25;5000951;28;20054;-35
2022/11/04 04:30:41;;;;;;;4.88;2.50;;;;;;;7.97;100.00;100319.06;5013739;28;20042;-35
2022/11/04 04:33:12;;;;;;;6.45;2.50;;;;;;;7.95;100.00;100317.63;5014086;28;20123;-35
2022/11/04 04:35:43;;;;;;;6.65;2.38;;;;;;;7.86;100.00;100314.47;5018991;28;20109;-35
2022/11/04 04:47:08;;;;;;;7.78;2.22;;;;;;;7.85;100.00;100338.88;5096189;28;20043;-35
2022/11/04 04:49:36;;;;;;;7.05;2.05;;;;;;;7.90;100.00;100326.41;5094914;28;20111;-34
2022/11/04 04:52:05;;;;;;;5.18;2.10;;;;;;;7.83;100.00;100331.06;5095479;28;20111;-35
2022/11/04 04:54:31;;;;;;;3.50;2.10;;;;;;;7.82;100.00;100331.28;5094845;28;20036;-35
2022/11/04 04:56:56;;;;;;;5.50;1.90;;;;;;;7.88;100.00;100339.28;5095608;28;20051;-34
2022/11/04 04:59:21;;;;;;;3.77;1.83;;;;;;;7.72;100.00;100321.88;5095706;28;20052;-34
2022/11/04 05:01:47;;;;;;;4.60;1.87;;;;;;;7.75;100.00;100331.34;5095960;28;20101;-34
2022/11/04 05:04:12;;;;;;;4.90;1.93;;;;;;;7.84;100.00;100346.16;5095437;28;20023;-35
2022/11/04 05:06:37;;;;;;;7.17;1.93;;;;;;;7.78;100.00;100347.06;5094730;28;20120;-35
2022/11/04 05:09:03;;;;;;;8.47;2.10;;;;;;;7.71;100.00;100338.22;5095023;28;20059;-35
2022/11/04 05:11:28;;;;;;;3.37;1.90;;;;;;;7.75;100.00;100352.88;5095117;28;20024;-34
2022/11/04 05:13:53;;;;;;;7.27;2.10;;;;;;;7.75;100.00;100347.50;5095453;28;20093;-34
2022/11/04 05:16:19;;;;;;;7.38;2.00;;;;;;;7.73;100.00;100349.59;5095061;28;20024;-34
2022/11/04 05:18:44;;;;;;;5.50;2.40;;;;;;;7.70;100.00;100350.84;5095941;28;20135;-35
2022/11/04 05:21:14;;;;;;;4.57;1.60;;;;;;;7.70;100.00;100352.72;5095125;28;20067;-35
2022/11/04 05:23:39;;;;;;;7.30;2.65;;;;;;;7.66;100.00;100363.13;5094948;28;20023;-34
2022/11/04 05:26:05;;;;;;;7.77;3.30;;;;;;;7.52;100.00;100353.56;5095177;28;20024;-34
2022/11/04 05:28:31;;;;;;;5.70;2.60;;;;;;;7.60;100.00;100371.25;5095447;28;20316;-34
2022/11/04 05:30:57;;;;;;;6.90;2.53;;;;;;;7.53;100.00;100373.22;5094749;28;20050;-34
2022/11/04 05:33:22;;;;;;;8.73;2.85;;;;;;;7.56;100.00;100378.94;5094799;28;20028;-34
2022/11/04 05:35:47;;;;;;;6.53;3.17;;;;;;;7.55;100.00;100382.69;5094438;28;20432;-34
2022/11/04 05:38:13;;;;;;;8.83;2.90;;;;;;;7.62;100.00;100388.03;5094638;28;20020;-34
2022/11/04 05:40:38;;;;;;;5.27;2.70;;;;;;;7.55;100.00;100379.19;5093255;28;20118;-34
2022/11/04 05:43:03;;;;;;;6.70;3.10;;;;;;;7.62;100.00;100385.34;5095110;28;20028;-34
2022/11/04 05:45:29;;;;;;;6.83;3.07;;;;;;;7.66;100.00;100389.19;5094853;28;20106;-34
2022/11/04 05:47:59;;;;;;;8.67;3.60;;;;;;;7.64;100.00;100394.00;5093601;28;20162;-34
2022/11/04 05:50:25;;;;;;;12.48;3.50;;;;;;;7.61;100.00;100395.28;5094260;28;20118;-34
2022/11/04 05:52:50;;;;;;;8.13;3.78;;;;;;;7.64;100.00;100394.81;5094524;28;20063;-34
2022/11/04 05:55:16;;;;;;;6.17;2.73;;;;;;;7.70;100.00;100395.78;5093849;28;20062;-34
2022/11/04 05:57:41;;;;;;;9.53;3.77;;;;;;;7.61;100.00;100392.59;5094246;28;20527;-34
2022/11/04 06:00:07;;;;;;;7.97;4.10;;;;;;;7.71;100.00;100398.28;5093879;28;20036;-34
2022/11/04 06:02:32;;;;;;;10.43;4.13;;;;;;;7.61;100.00;100380.97;5094571;28;20024;-34
2022/11/04 06:04:58;;;;;;;8.83;4.17;;;;;;;7.71;100.00;100392.03;5093754;28;20487;-34
2022/11/04 06:07:23;;;;;;;7.10;3.23;;;;;;;7.86;100.00;100397.91;5093916;28;20436;-34
2022/11/04 06:09:48;;;;;;;7.63;3.90;;;;;;;7.84;100.00;100404.56;5094002;28;20062;-34
2022/11/04 06:12:15;;;;;;;13.53;3.90;;;;;;;7.84;100.00;100399.16;5094313;28;20024;-34
2022/11/04 06:14:41;;;;;;;9.73;4.40;;;;;;;7.84;100.00;100394.59;5094411;28;20046;-34
2022/11/04 06:17:12;;;;;;;14.48;4.53;;;;;;;7.84;100.00;100400.00;5094142;28;20028;-34
2022/11/04 06:19:37;;;;;;;8.90;4.22;;;;;;;7.88;100.00;100398.50;5094182;28;20048;-34
2022/11/04 06:22:02;;;;;;;8.93;4.20;;;;;;;7.86;100.00;100397.91;5093765;28;20038;-34
2022/11/04 06:24:28;;;;;;;9.90;4.43;;;;;;;7.80;100.00;100396.09;5093781;28;20083;-34
2022/11/04 06:26:53;;;;;;;10.57;5.13;;;;;;;7.84;100.00;100410.75;5094090;28;20028;-34
2022/11/04 06:29:18;;;;;;;9.30;4.30;;;;;;;7.83;100.00;100417.19;5093997;28;20729;-34
2022/11/04 06:31:44;;;;;;;7.80;3.60;;;;;;;7.95;100.00;100420.81;5093596;28;20533;-34
2022/11/04 06:34:09;;;;;;;8.30;4.03;;;;;;;7.89;100.00;100418.97;5093394;28;20043;-34
2022/11/04 06:36:35;;;;;;;10.57;4.00;;;;;;;7.83;100.00;100406.41;5093826;28;20031;-34
2022/11/04 06:39:00;;;;;;;6.82;3.40;;;;;;;7.97;100.00;100424.09;5093482;28;20425;-34
2022/11/04 06:41:25;;;;;;;8.23;4.40;;;;;;;7.93;100.00;100419.38;5093840;28;20032;-34
2022/11/04 06:43:50;;;;;;;12.20;3.73;;;;;;;7.98;100.00;100430.28;5094206;28;20032;-34
2022/11/04 06:46:23;;;;;;;10.97;4.60;;;;;;;7.89;100.00;100416.28;5091742;28;20453;-34
2022/11/04 06:48:48;;;;;;;9.02;4.07;;;;;;;7.86;100.00;100426.72;5094062;28;20419;-34
2022/11/04 06:51:14;;;;;;;12.40;4.37;;;;;;;7.95;100.00;100436.97;5093162;28;20119;-34
2022/11/04 06:53:39;;;;;;;9.47;3.83;;;;;;;7.99;100.00;100448.09;5094046;28;20134;-34
2022/11/04 06:56:05;;;;;;;8.17;3.80;;;;;;;7.92;100.00;100445.47;5093481;28;20038;-34
2022/11/04 06:58:31;;;;;;;;;;;;;;;8.04;100.00;100455.50;5094168;28;20404;-34
2022/11/04 07:00:56;;;;;;;9.10;4.18;;;;;;;7.99;100.00;100456.16;5093175;28;19930;-34
2022/11/04 07:03:24;;;;;;;10.30;3.97;;;;;;;7.92;100.00;100450.84;5092921;28;20027;-34
2022/11/04 07:05:49;;;;;;;8.57;4.15;;;;;;;8.02;100.00;100468.38;5093057;28;20144;-34
2022/11/04 07:08:15;;;;;;;8.40;4.07;;;;;;;8.00;100.00;100453.25;5092364;28;20032;-34
2022/11/04 07:10:41;;;;;;;5.73;3.57;;;;;;;8.14;100.00;100462.00;5092759;28;20032;-34
2022/11/04 07:13:06;;;;;;;8.05;3.85;;;;;;;8.11;100.00;100461.66;5092714;28;20476;-34
2022/11/04 07:15:32;;;;;;;6.90;3.90;;;;;;;8.20;100.00;100473.78;5092923;28;20024;-34
2022/11/04 07:17:58;;;;;;;9.90;3.55;;;;;;;8.24;100.00;100472.25;5093067;28;20040;-34
2022/11/04 07:20:23;;;;;;;5.32;3.17;;;;;;;8.28;100.00;100473.44;5092125;28;20040;-34
2022/11/04 07:22:48;;;;;;;9.87;4.47;;;;;;;8.36;100.00;100477.72;5093513;28;20032;-34
2022/11/04 07:25:14;;;;;;;7.27;3.00;;;;;;;8.41;100.00;100475.22;5093134;28;20031;-34
2022/11/04 07:27:39;;;;;;;8.17;3.83;;;;;;;8.42;100.00;100480.38;5093153;28;20476;-34
2022/11/04 07:30:05;;;;;;;9.37;3.97;;;;;;;8.41;100.00;100476.03;5092722;28;20028;-34
2022/11/04 07:32:31;;;;;;;8.32;3.10;;;;;;;8.44;100.00;100483.69;5093301;28;20036;-34
2022/11/04 07:34:57;;;;;;;10.15;3.85;;;;;;;8.43;100.00;100487.41;5092718;28;20391;-33
2022/11/04 07:37:22;;;;;;;7.60;2.93;;;;;;;8.54;100.00;100480.44;5093363;28;20028;-34
2022/11/04 07:39:47;;;;;;;8.40;3.47;;;;;;;8.51;100.00;100468.22;5092701;28;20036;-34
2022/11/04 07:42:12;;;;;;;9.13;3.77;;;;;;;8.47;100.00;100463.53;5092758;28;20110;-34
2022/11/04 07:44:38;;;;;;;7.53;3.27;;;;;;;8.52;100.00;100469.88;5093186;28;20067;-33
2022/11/04 07:47:03;;;;;;;7.60;3.57;;;;;;;8.58;100.00;100478.09;5092585;28;20103;-33
2022/11/04 07:49:28;;;;;;;10.37;3.27;;;;;;;8.68;100.00;100494.56;5092999;28;20024;-34
2022/11/04 07:51:54;;;;;;;12.43;4.10;;;;;;;8.70;100.00;100493.28;5092435;28;20032;-34
2022/11/04 07:54:19;;;;;;;6.30;3.40;;;;;;;8.64;100.00;100478.03;5092396;28;20028;-34
2022/11/04 07:56:44;;;;;;;5.83;3.60;;;;;;;8.71;100.00;100491.41;5092710;28;20086;-34
2022/11/04 07:59:10;;;;;;;6.50;3.10;;;;;;;8.80;100.00;100500.03;5093037;28;20468;-34
2022/11/04 08:01:35;;;;;;;9.68;3.30;;;;;;;8.73;100.00;100508.19;5092579;28;20031;-34
2022/11/04 08:04:00;;;;;;;7.23;3.10;;;;;;;8.80;100.00;100517.03;5093197;28;20032;-34
2022/11/04 08:06:26;;;;;;;9.67;3.77;;;;;;;8.83;100.00;100513.03;5092594;28;20408;-34
2022/11/04 08:08:52;;;;;;;9.02;2.88;;;;;;;8.86;100.00;100510.72;5092600;28;20384;-34
2022/11/04 08:11:20;;;;;;;8.13;3.33;;;;;;;8.92;100.00;100514.38;5092493;28;20361;-34
2022/11/04 08:13:46;;;;;;;9.13;3.63;;;;;;;8.89;100.00;100518.34;5092520;28;20057;-34
2022/11/04 08:16:15;;;;;;;5.22;2.90;;;;;;;8.97;100.00;100517.19;5092996;28;20071;-34
2022/11/04 08:18:41;;;;;;;9.32;3.38;;;;;;;8.96;100.00;100520.94;5093872;28;20067;-34
2022/11/04 08:21:07;;;;;;;12.73;3.63;;;;;;;8.98;100.00;100521.56;5096285;28;20044;-34
2022/11/04 08:23:33;;;;;;;8.65;3.65;;;;;;;8.91;100.00;100528.91;5094852;28;20042;-35
2022/11/04 08:25:59;;;;;;;11.38;3.95;;;;;;;8.83;100.00;100524.63;5096383;28;20118;-34
2022/11/04 08:28:25;;;;;;;8.50;3.63;;;;;;;8.91;100.00;100537.81;5095914;28;20028;-34
2022/11/04 08:31:01;;;;;;;;;;;;;;;8.99;100.00;100540.22;5096439;28;20024;-34
2022/11/04 08:33:28;;;;;;;9.52;3.22;;;;;;;8.98;100.00;100548.53;5096016;28;19965;-34
2022/11/04 08:35:57;;;;;;;7.60;3.58;;;;;;;8.98;100.00;100548.53;5096197;28;20077;-34
2022/11/04 08:38:23;;;;;;;8.82;3.80;;;;;;;9.08;100.00;100548.81;5095802;28;20464;-34
2022/11/04 08:40:48;;;;;;;9.00;3.67;;;;;;;9.06;100.00;100541.97;5095805;28;20028;-34
2022/11/04 08:43:13;;;;;;;9.07;3.40;;;;;;;9.06;100.00;100550.91;5096631;28;20038;-34
2022/11/04 08:45:45;;;;;;;8.33;3.23;;;;;;;9.17;100.00;100550.13;5095889;28;20210;-34
2022/11/04 08:48:11;;;;;;;6.00;3.47;;;;;;;9.26;100.00;100556.84;5096332;28;20055;-34
2022/11/04 08:50:36;;;;;;;12.65;4.53;;;;;;;9.23;100.00;100541.13;5095373;28;20031;-34
2022/11/04 08:53:03;;;;;;;11.60;4.30;;;;;;;9.39;100.00;100549.63;5096539;28;20028;-34
2022/11/04 08:55:28;;;;;;;10.27;4.13;;;;;;;9.37;100.00;100546.31;5095294;28;20027;-34
2022/11/04 08:57:54;;;;;;;11.30;4.05;;;;;;;9.52;100.00;100555.66;5094672;28;20043;-34
2022/11/04 09:00:19;;;;;;;9.95;3.70;;;;;;;9.66;100.00;100566.22;5095636;28;20089;-34
2022/11/04 09:02:45;;;;;;;9.40;4.43;;;;;;;9.82;100.00;100565.56;5096325;28;20040;-34
2022/11/04 09:05:10;;;;;;;10.40;3.58;;;;;;;9.93;100.00;100575.56;5095185;28;20028;-35
2022/11/04 09:07:36;;;;;;;8.33;3.60;;;;;;;10.00;100.00;100575.44;5095425;28;20032;-34
2022/11/04 09:10:02;;;;;;;9.93;3.80;;;;;;;9.95;100.00;100589.63;5095186;28;20121;-34
2022/11/04 09:12:28;;;;;;;9.77;3.95;;;;;;;9.96;100.00;100588.59;5095267;28;20043;-34
2022/11/04 09:14:53;;;;;;;8.13;3.80;;;;;;;10.02;100.00;100590.38;5095422;28;20028;-34
2022/11/04 09:17:18;;;;;;;10.50;3.23;;;;;;;10.02;100.00;100595.75;5095880;28;20036;-34
2022/11/04 09:19:43;;;;;;;8.43;3.53;;;;;;;10.04;100.00;100590.94;5095542;28;20071;-33
2022/11/04 09:22:09;;;;;;;8.07;3.40;;;;;;;10.11;100.00;100596.25;5095710;28;20036;-33
2022/11/04 09:24:34;;;;;;;7.83;3.47;;;;;;;10.17;100.00;100591.78;5095703;28;20036;-34
2022/11/04 09:26:59;;;;;;;16.10;4.27;;;;;;;10.17;100.00;100594.50;5095515;28;20119;-34
2022/11/04 09:29:25;;;;;;;7.40;3.20;;;;;;;10.20;100.00;100586.75;5095384;28;20425;-34
2022/11/04 09:31:51;;;;;;;9.25;3.47;;;;;;;10.27;100.00;100590.16;5093971;28;20531;-34
2022/11/04 09:34:16;;;;;;;12.43;3.88;;;;;;;10.29;100.00;100598.84;5093924;28;20461;-34
2022/11/04 09:36:43;;;;;;;7.55;3.50;;;;;;;10.31;100.00;100604.03;5094960;28;20038;-34
2022/11/04 09:39:09;;;;;;;9.60;3.47;;;;;;;10.27;100.00;100605.56;5095423;28;20031;-34
2022/11/04 09:41:41;;;;;;;;;;;;;;;10.38;100.00;100612.84;5095120;28;20132;-34
2022/11/04 09:44:15;;;;;;;10.57;3.85;;;;;;;10.28;100.00;100626.13;5094712;28;20352;-34
2022/11/04 09:46:41;;;;;;;7.72;3.30;;;;;;;10.25;100.00;100618.50;5094693;28;20038;-34
2022/11/04 09:49:11;;;;;;;10.18;3.65;;;;;;;10.27;100.00;100636.13;5094643;28;20032;-34
2022/11/04 09:51:40;;;;;;;6.85;3.83;;;;;;;10.31;100.00;100639.19;5094054;28;20035;-34
2022/11/04 09:54:17;;;;;;;9.80;3.70;;;;;;;10.32;100.00;100648.94;5094889;28;20032;-34
2022/11/04 09:56:47;;;;;;;7.00;3.72;;;;;;;10.24;100.00;100649.25;5094607;28;20028;-34
2022/11/04 09:59:19;;;;;;;10.18;4.28;;;;;;;10.30;100.00;100638.34;5094818;28;20036;-34
2022/11/04 10:01:50;;;;;;;9.25;3.58;;;;;;;10.39;100.00;100651.50;5094231;28;20035;-34
2022/11/04 10:04:34;;;;;;;9.20;4.25;;;;;;;10.37;100.00;100659.03;5095065;28;20032;-34
2022/11/04 10:07:13;;;;;;;6.85;3.72;;;;;;;10.39;100.00;100657.72;5094379;28;20032;-34
2022/11/04 10:09:48;;;;;;;10.20;3.88;;;;;;;10.44;100.00;100659.72;5094254;28;20107;-34
2022/11/04 10:12:37;;;;;;;11.07;3.47;;;;;;;10.45;100.00;100646.00;5094178;28;20046;-34
2022/11/04 10:15:15;;;;;;;13.60;4.63;;;;;;;10.54;100.00;100655.41;5094695;28;20028;-34
2022/11/04 10:17:46;;;;;;;8.73;4.10;;;;;;;10.56;100.00;100645.16;5094130;28;20545;-34
2022/11/04 10:20:53;;;;;;;11.02;4.05;;;;;;;10.74;100.00;100659.63;5094172;28;20426;-34
2022/11/04 10:23:25;;;;;;;9.25;4.20;;;;;;;10.76;100.00;100662.91;5071549;28;20041;-34
2022/11/04 10:26:00;;;;;;;11.23;4.53;;;;;;;10.91;100.00;100667.84;5071644;28;20121;-34
2022/11/04 10:28:37;;;;;;;8.88;4.45;;;;;;;10.97;100.00;100667.69;5071795;28;20510;-34
2022/11/04 10:31:04;;;;;;;11.50;4.18;;;;;;;10.95;100.00;100660.91;5071281;28;20036;-34
2022/11/04 10:33:32;;;;;;;12.13;4.03;;;;;;;10.94;100.00;100649.25;5071353;28;20097;-34
2022/11/04 10:36:04;;;;;;;10.85;4.90;;;;;;;11.02;100.00;100651.56;5071225;28;20067;-34
2022/11/04 10:38:51;;;;;;;8.55;4.45;;;;;;;11.17;100.00;100675.44;5071687;28;20128;-34
2022/11/04 10:41:25;;;;;;;11.32;4.75;;;;;;;11.25;100.00;100676.94;5071444;28;20032;-34
2022/11/04 10:44:10;;;;;;;10.73;4.63;;;;;;;11.29;100.00;100678.13;5071062;28;20107;-34
2022/11/04 10:47:03;;;;;;;9.68;4.47;;;;;;;11.30;100.00;100685.16;5071030;28;20075;-34
2022/11/04 10:49:47;;;;;;;14.90;5.13;;;;;;;11.11;100.00;100676.38;5071646;28;20044;-34
2022/11/04 10:52:13;;;;;;;9.70;4.97;;;;;;;11.24;100.00;100692.38;5071298;28;20115;-34
2022/11/04 10:54:45;;;;;;;11.88;5.60;;;;;;;11.32;100.00;100699.28;5071308;28;20186;-34
2022/11/04 10:57:12;;;;;;;9.60;4.47;;;;;;;11.37;100.00;100695.84;5071527;28;20385;-34
2022/11/04 10:59:55;;;;;;;12.65;4.88;;;;;;;11.45;100.00;100699.00;5079204;28;20183;-34
2022/11/04 11:02:48;;;;;;;12.15;5.03;;;;;;;11.56;100.00;100702.75;5094079;28;20024;-34
2022/11/04 11:05:20;;;;;;;11.70;4.93;;;;;;;11.54;100.00;100692.16;5091861;28;20065;-34
2022/11/04 11:07:48;;;;;;;12.38;5.72;;;;;;;11.69;100.00;100704.34;5093218;28;20036;-35
2022/11/04 11:10:19;;;;;;;12.02;5.28;;;;;;;11.80;100.00;100698.06;5093108;28;20028;-34
2022/11/04 11:12:57;;;;;;;9.07;5.13;;;;;;;11.93;100.00;100694.28;5093514;28;20032;-34
2022/11/04 11:15:23;;;;;;;12.18;5.43;;;;;;;11.98;100.00;100689.75;5093694;28;20039;-35
2022/11/04 11:17:52;;;;;;;8.88;5.32;;;;;;;11.95;100.00;100690.22;5092858;28;20027;-35
2022/11/04 11:20:22;;;;;;;10.52;5.82;;;;;;;11.91;100.00;100697.22;5093759;28;20464;-35
2022/11/04 11:22:53;;;;;;;11.27;5.72;;;;;;;11.88;99.71;100700.41;5093317;28;20376;-34
2022/11/04 11:25:30;;;;;;;10.25;5.88;;;;;;;11.88;99.82;100700.41;5093059;28;20035;-34
2022/11/04 11:27:58;;;;;;;11.77;5.65;;;;;;;11.81;97.69;100702.44;5092982;28;20468;-34
2022/11/04 11:30:56;;;;;;;11.52;5.78;;;;;;;12.05;100.00;100703.16;5092883;28;20027;-34
2022/11/04 11:33:29;;;;;;;13.77;5.90;;;;;;;12.28;99.61;100708.44;5093457;28;20039;-34
2022/11/04 11:36:01;;;;;;;13.52;6.93;;;;;;;12.37;97.68;100696.13;5092592;28;20028;-34
2022/11/04 11:38:32;;;;;;;13.48;6.13;;;;;;;12.52;98.20;100692.00;5092783;28;20028;-34
2022/11/04 11:41:30;;;;;;;10.27;5.85;;;;;;;12.66;97.83;100695.22;5093208;28;20031;-34
2022/11/04 11:43:59;;;;;;;10.43;5.63;;;;;;;12.74;94.84;100692.09;5092238;28;20036;-34
2022/11/04 11:46:29;;;;;;;8.57;4.72;;;;;;;12.73;93.87;100698.56;5092775;28;20062;-35
2022/11/04 11:49:00;;;;;;;11.18;5.40;;;;;;;12.69;95.02;100689.28;5093242;28;20160;-34
2022/11/04 11:51:30;;;;;;;12.55;5.03;;;;;;;12.71;93.51;100703.41;5092811;28;20522;-34
2022/11/04 11:54:32;;;;;;;10.70;5.43;;;;;;;12.59;94.57;100701.63;5094140;28;20024;-34
2022/11/04 11:57:02;;;;;;;11.68;5.85;;;;;;;12.43;95.86;100709.75;5096708;28;20020;-35
2022/11/04 11:59:51;;;;;;;10.63;6.15;;;;;;;12.38;96.37;100711.31;5096884;28;20035;-34
2022/11/04 12:02:37;;;;;;;11.82;5.63;;;;;;;12.33;96.04;100722.06;5097377;28;20036;-34
2022/11/04 12:05:09;;;;;;;13.05;6.25;;;;;;;12.31;96.54;100726.13;5097438;28;20031;-34
2022/11/04 12:07:38;;;;;;;11.65;6.43;;;;;;;12.45;95.66;100723.91;5096371;28;20032;-34
2022/11/04 12:10:13;;;;;;;10.70;6.75;;;;;;;12.51;93.87;100736.47;5097242;28;20028;-34